• Join FlightAware (Why Join?)
  • Login
  • US Flag 
10:52PM EDT


 

Airport Tracker/Info


-or-


 

Live Flight TrackerFlight Track Log ✈ N26141 ✈ 20-Apr-2013 ✈ KPIA - KORD

Flight Track Log - Related Links

Times and Time Zones

All times are in EDT time to prevent confusion due to time zone crossing. See the N26141 flight status page for this flight to view local times or setup timezone preferences in your user account.

Time Position Orientation Groundspeed Altitude Reporting Facility
EDT Latitude Longitude Course Direction KTS MPH feet Rate Location/Type
03:35PM 40.7497 -89.7472 357° North 223 257 6,000  Level Chicago Center
03:36PM 40.8285 -89.6476 North  Level FlightAware Approximate
03:36PM 40.8119 -89.7064 26° Northeast 249 287 9,300  Level Chicago Center
03:37PM 40.8882 -89.6357 North  Level FlightAware Approximate
03:37PM 40.8664 -89.6256 48° Northeast 280 322 11,000  Level Chicago Center
03:38PM 40.9479 -89.6255 11° North  Level FlightAware Approximate
03:38PM 40.9336 -89.5253 48° Northeast 336 387 11,000  Level Chicago Center
03:39PM 41.0069 -89.6088 14° North  Level FlightAware Approximate
03:39PM 41.0008 -89.4258 48° Northeast 358 412 11,000  Level Chicago Center
03:40PM 41.0667 -89.3267 49° Northeast 359 413 11,000  Level Chicago Center
03:41PM 41.1478 -89.2036 49° Northeast 366 421 11,000  Level Chicago Center
03:42PM 41.2144 -89.1031 49° Northeast 373 429 11,000  Level Chicago Center
03:43PM 41.2814 -88.9981 50° Northeast 374 430 11,000  Level Chicago Center
03:44PM 41.3489 -88.8950 49° Northeast 372 428 11,000  Level Chicago Center
03:45PM 41.4136 -88.7881 51° Northeast 371 427 11,000  Level Chicago Center
03:46PM 41.4778 -88.6808 51° Northeast 372 428 11,000  Level Chicago Center
03:47PM 41.5547 -88.5531 51° Northeast 370 426 11,000  Level Chicago Center
03:48PM 41.6186 -88.4456 51° Northeast 369 425 11,000  Level Chicago Center
03:49PM 41.6822 -88.3394 51° Northeast 366 421 11,000  Level Chicago Center
03:50PM 41.7450 -88.2314 52° Northeast 366 421 11,000 -300 Level Chicago Center
03:51PM 41.7983 -88.1406 52° Northeast 308 354 10,400 -1,080 Descending Chicago Center
03:52PM 41.8442 -88.0600 53° Northeast 275 316 8,800 -1,620 Descending Chicago Center
03:53PM 41.8833 -87.9500 64° Northeast 283 326 7,100 -900 Descending Chicago TRACON
03:54PM 41.8833 -87.8500 90° East 247 284 7,000 -780 Descending Chicago TRACON
03:55PM 41.8833 -87.7667 90° East 228 262 5,600 -1,200 Descending Chicago TRACON
03:56PM 41.9167 -87.7000 56° Northeast 219 252 4,500 -1,200 Descending Chicago TRACON
03:57PM 41.9500 -87.7500 312° West 206 237 3,100 -1,440 Descending Chicago TRACON